sensor_id;sensor_type;location;lat;lon;timestamp;temperature;humidity
55121;DHT22;41019;48.512;9.036;2023-10-31T00:00:52;12.60;99.90
55121;DHT22;41019;48.512;9.036;2023-10-31T00:03:18;12.60;99.90
55121;DHT22;41019;48.512;9.036;2023-10-31T00:05:44;12.60;99.90
55121;DHT22;41019;48.512;9.036;2023-10-31T00:08:13;12.60;99.90
55121;DHT22;41019;48.512;9.036;2023-10-31T00:10:39;12.50;99.90
55121;DHT22;41019;48.512;9.036;2023-10-31T00:13:05;12.60;99.90
55121;DHT22;41019;48.512;9.036;2023-10-31T00:15:31;12.50;99.90
55121;DHT22;41019;48.512;9.036;2023-10-31T00:17:57;12.50;99.90
55121;DHT22;41019;48.512;9.036;2023-10-31T00:20:23;12.60;99.90
55121;DHT22;41019;48.512;9.036;2023-10-31T00:22:49;12.50;99.90
55121;DHT22;41019;48.512;9.036;2023-10-31T00:25:15;12.50;99.90
55121;DHT22;41019;48.512;9.036;2023-10-31T00:27:40;12.50;99.90
55121;DHT22;41019;48.512;9.036;2023-10-31T00:30:06;12.50;99.90
55121;DHT22;41019;48.512;9.036;2023-10-31T00:32:32;12.40;99.90
55121;DHT22;41019;48.512;9.036;2023-10-31T00:34:58;12.40;99.90
55121;DHT22;41019;48.512;9.036;2023-10-31T00:37:25;12.30;99.90
55121;DHT22;41019;48.512;9.036;2023-10-31T00:39:50;12.40;99.90
55121;DHT22;41019;48.512;9.036;2023-10-31T00:42:16;12.30;99.90
55121;DHT22;41019;48.512;9.036;2023-10-31T00:44:42;12.30;99.90
55121;DHT22;41019;48.512;9.036;2023-10-31T00:47:08;12.30;99.90
55121;DHT22;41019;48.512;9.036;2023-10-31T00:49:34;12.20;99.90
55121;DHT22;41019;48.512;9.036;2023-10-31T00:52:02;12.20;99.90
55121;DHT22;41019;48.512;9.036;2023-10-31T00:54:28;12.20;99.90
55121;DHT22;41019;48.512;9.036;2023-10-31T00:56:54;12.10;99.90
55121;DHT22;41019;48.512;9.036;2023-10-31T00:59:23;12.10;99.90
55121;DHT22;41019;48.512;9.036;2023-10-31T01:01:49;12.10;99.90
55121;DHT22;41019;48.512;9.036;2023-10-31T01:04:15;12.00;99.90
55121;DHT22;41019;48.512;9.036;2023-10-31T01:06:42;12.10;99.90
55121;DHT22;41019;48.512;9.036;2023-10-31T01:09:09;12.10;99.90
55121;DHT22;41019;48.512;9.036;2023-10-31T01:11:36;12.00;99.90
55121;DHT22;41019;48.512;9.036;2023-10-31T01:14:02;12.00;99.90
55121;DHT22;41019;48.512;9.036;2023-10-31T01:16:28;12.00;99.90
55121;DHT22;41019;48.512;9.036;2023-10-31T01:19:07;11.90;99.90
55121;DHT22;41019;48.512;9.036;2023-10-31T01:21:33;11.90;99.90
55121;DHT22;41019;48.512;9.036;2023-10-31T01:24:00;11.80;99.90
55121;DHT22;41019;48.512;9.036;2023-10-31T01:26:26;11.90;99.90
55121;DHT22;41019;48.512;9.036;2023-10-31T01:28:52;11.80;99.90
55121;DHT22;41019;48.512;9.036;2023-10-31T01:31:18;11.80;99.90
55121;DHT22;41019;48.512;9.036;2023-10-31T01:33:45;11.70;99.90
55121;DHT22;41019;48.512;9.036;2023-10-31T01:36:11;11.60;99.90
55121;DHT22;41019;48.512;9.036;2023-10-31T01:38:38;11.70;99.90
55121;DHT22;41019;48.512;9.036;2023-10-31T01:41:04;11.60;99.90
55121;DHT22;41019;48.512;9.036;2023-10-31T01:43:35;11.70;99.90
55121;DHT22;41019;48.512;9.036;2023-10-31T01:46:02;11.60;99.90
55121;DHT22;41019;48.512;9.036;2023-10-31T01:48:30;11.70;99.90
55121;DHT22;41019;48.512;9.036;2023-10-31T01:50:59;11.70;99.90
55121;DHT22;41019;48.512;9.036;2023-10-31T01:53:30;11.70;99.90
55121;DHT22;41019;48.512;9.036;2023-10-31T01:55:58;11.70;99.90
55121;DHT22;41019;48.512;9.036;2023-10-31T01:58:29;11.70;99.90
55121;DHT22;41019;48.512;9.036;2023-10-31T02:00:57;11.70;99.90
55121;DHT22;41019;48.512;9.036;2023-10-31T02:03:23;11.70;99.90
55121;DHT22;41019;48.512;9.036;2023-10-31T02:05:51;11.70;99.90
55121;DHT22;41019;48.512;9.036;2023-10-31T02:08:18;11.80;99.90
55121;DHT22;41019;48.512;9.036;2023-10-31T02:10:44;11.80;99.90
55121;DHT22;41019;48.512;9.036;2023-10-31T02:13:14;11.80;99.90
55121;DHT22;41019;48.512;9.036;2023-10-31T02:15:41;11.80;99.90
55121;DHT22;41019;48.512;9.036;2023-10-31T02:18:10;11.80;99.90
55121;DHT22;41019;48.512;9.036;2023-10-31T02:20:40;11.80;99.90
55121;DHT22;41019;48.512;9.036;2023-10-31T02:23:06;11.80;99.90
55121;DHT22;41019;48.512;9.036;2023-10-31T02:25:36;11.80;99.90
55121;DHT22;41019;48.512;9.036;2023-10-31T02:28:05;11.80;99.90
55121;DHT22;41019;48.512;9.036;2023-10-31T02:30:31;11.80;99.90
55121;DHT22;41019;48.512;9.036;2023-10-31T02:33:01;11.80;99.90
55121;DHT22;41019;48.512;9.036;2023-10-31T02:35:27;11.90;99.90
55121;DHT22;41019;48.512;9.036;2023-10-31T02:37:53;11.80;99.90
55121;DHT22;41019;48.512;9.036;2023-10-31T02:40:19;11.80;99.90
55121;DHT22;41019;48.512;9.036;2023-10-31T02:43:05;11.80;99.90
55121;DHT22;41019;48.512;9.036;2023-10-31T02:45:33;11.90;99.90
55121;DHT22;41019;48.512;9.036;2023-10-31T02:48:05;11.90;99.90
55121;DHT22;41019;48.512;9.036;2023-10-31T02:50:30;11.90;99.90
55121;DHT22;41019;48.512;9.036;2023-10-31T02:52:56;11.90;99.90
55121;DHT22;41019;48.512;9.036;2023-10-31T02:55:25;11.80;99.90
55121;DHT22;41019;48.512;9.036;2023-10-31T02:57:51;11.90;99.90
55121;DHT22;41019;48.512;9.036;2023-10-31T03:00:20;11.90;99.90
55121;DHT22;41019;48.512;9.036;2023-10-31T03:02:50;11.80;99.90
55121;DHT22;41019;48.512;9.036;2023-10-31T03:05:17;11.90;99.90
55121;DHT22;41019;48.512;9.036;2023-10-31T03:07:45;11.80;99.90
55121;DHT22;41019;48.512;9.036;2023-10-31T03:10:20;11.80;99.90
55121;DHT22;41019;48.512;9.036;2023-10-31T03:12:47;11.80;99.90
55121;DHT22;41019;48.512;9.036;2023-10-31T03:15:22;11.80;99.90
55121;DHT22;41019;48.512;9.036;2023-10-31T03:17:48;11.80;99.90
55121;DHT22;41019;48.512;9.036;2023-10-31T03:20:14;11.80;99.90
55121;DHT22;41019;48.512;9.036;2023-10-31T03:22:57;11.70;99.90
55121;DHT22;41019;48.512;9.036;2023-10-31T03:25:29;11.80;99.90
55121;DHT22;41019;48.512;9.036;2023-10-31T03:27:55;11.80;99.90
55121;DHT22;41019;48.512;9.036;2023-10-31T03:30:21;11.80;99.90
55121;DHT22;41019;48.512;9.036;2023-10-31T03:32:47;11.80;99.90
55121;DHT22;41019;48.512;9.036;2023-10-31T03:35:19;11.70;99.90
55121;DHT22;41019;48.512;9.036;2023-10-31T03:37:48;11.70;99.90
55121;DHT22;41019;48.512;9.036;2023-10-31T03:40:19;11.70;99.90
55121;DHT22;41019;48.512;9.036;2023-10-31T03:42:45;11.70;99.90
55121;DHT22;41019;48.512;9.036;2023-10-31T03:45:11;11.60;99.90
55121;DHT22;41019;48.512;9.036;2023-10-31T03:47:37;11.70;99.90
55121;DHT22;41019;48.512;9.036;2023-10-31T03:50:07;11.70;99.90
55121;DHT22;41019;48.512;9.036;2023-10-31T03:52:32;11.60;99.90
55121;DHT22;41019;48.512;9.036;2023-10-31T03:54:59;11.60;99.90
55121;DHT22;41019;48.512;9.036;2023-10-31T03:57:27;11.50;99.90
55121;DHT22;41019;48.512;9.036;2023-10-31T03:59:53;11.50;99.90
55121;DHT22;41019;48.512;9.036;2023-10-31T04:02:19;11.50;99.90
55121;DHT22;41019;48.512;9.036;2023-10-31T04:04:45;11.50;99.90
55121;DHT22;41019;48.512;9.036;2023-10-31T04:07:11;11.50;99.90
55121;DHT22;41019;48.512;9.036;2023-10-31T04:09:40;11.50;99.90
55121;DHT22;41019;48.512;9.036;2023-10-31T04:12:07;11.50;99.90
55121;DHT22;41019;48.512;9.036;2023-10-31T04:14:33;11.50;99.90
55121;DHT22;41019;48.512;9.036;2023-10-31T04:17:08;11.50;99.90
55121;DHT22;41019;48.512;9.036;2023-10-31T04:19:36;11.50;99.90
55121;DHT22;41019;48.512;9.036;2023-10-31T04:22:10;11.50;99.90
55121;DHT22;41019;48.512;9.036;2023-10-31T04:24:41;11.50;99.90
55121;DHT22;41019;48.512;9.036;2023-10-31T04:27:07;11.50;99.90
55121;DHT22;41019;48.512;9.036;2023-10-31T04:29:36;11.50;99.90
55121;DHT22;41019;48.512;9.036;2023-10-31T04:32:07;11.50;99.90
55121;DHT22;41019;48.512;9.036;2023-10-31T04:34:33;11.50;99.90
55121;DHT22;41019;48.512;9.036;2023-10-31T04:36:59;11.50;99.90
55121;DHT22;41019;48.512;9.036;2023-10-31T04:39:25;11.40;99.90
55121;DHT22;41019;48.512;9.036;2023-10-31T04:41:53;11.40;99.90
55121;DHT22;41019;48.512;9.036;2023-10-31T04:44:19;11.40;99.90
55121;DHT22;41019;48.512;9.036;2023-10-31T04:46:45;11.40;99.90
55121;DHT22;41019;48.512;9.036;2023-10-31T04:49:11;11.40;99.90
55121;DHT22;41019;48.512;9.036;2023-10-31T04:51:37;11.40;99.90
55121;DHT22;41019;48.512;9.036;2023-10-31T04:54:04;11.40;99.90
55121;DHT22;41019;48.512;9.036;2023-10-31T04:56:30;11.30;99.90
55121;DHT22;41019;48.512;9.036;2023-10-31T04:58:57;11.30;99.90
55121;DHT22;41019;48.512;9.036;2023-10-31T05:01:23;11.30;99.90
55121;DHT22;41019;48.512;9.036;2023-10-31T05:03:49;11.30;99.90
55121;DHT22;41019;48.512;9.036;2023-10-31T05:06:25;11.30;99.90
55121;DHT22;41019;48.512;9.036;2023-10-31T05:08:51;11.20;99.90
55121;DHT22;41019;48.512;9.036;2023-10-31T05:11:17;11.20;99.90
55121;DHT22;41019;48.512;9.036;2023-10-31T05:16:19;11.20;99.90
55121;DHT22;41019;48.512;9.036;2023-10-31T05:18:45;11.20;99.90
55121;DHT22;41019;48.512;9.036;2023-10-31T05:21:18;11.10;99.90
55121;DHT22;41019;48.512;9.036;2023-10-31T05:23:46;11.10;99.90
55121;DHT22;41019;48.512;9.036;2023-10-31T05:26:16;11.10;99.90
55121;DHT22;41019;48.512;9.036;2023-10-31T05:28:45;11.10;99.90
55121;DHT22;41019;48.512;9.036;2023-10-31T05:31:21;11.10;99.90
55121;DHT22;41019;48.512;9.036;2023-10-31T05:34:07;11.00;99.90
55121;DHT22;41019;48.512;9.036;2023-10-31T05:36:43;11.00;99.90
55121;DHT22;41019;48.512;9.036;2023-10-31T05:39:13;11.00;99.90
55121;DHT22;41019;48.512;9.036;2023-10-31T05:41:53;11.00;99.90
55121;DHT22;41019;48.512;9.036;2023-10-31T05:44:34;11.00;99.90
55121;DHT22;41019;48.512;9.036;2023-10-31T05:47:00;11.00;99.90
55121;DHT22;41019;48.512;9.036;2023-10-31T05:49:26;10.90;99.90
55121;DHT22;41019;48.512;9.036;2023-10-31T05:51:59;10.90;99.90
55121;DHT22;41019;48.512;9.036;2023-10-31T05:54:28;10.90;99.90
55121;DHT22;41019;48.512;9.036;2023-10-31T05:57:02;11.00;99.90
55121;DHT22;41019;48.512;9.036;2023-10-31T05:59:41;10.90;99.90
55121;DHT22;41019;48.512;9.036;2023-10-31T06:02:22;10.80;99.90
55121;DHT22;41019;48.512;9.036;2023-10-31T06:05:03;10.90;99.90
55121;DHT22;41019;48.512;9.036;2023-10-31T06:07:40;10.80;99.90
55121;DHT22;41019;48.512;9.036;2023-10-31T06:10:10;10.80;99.90
55121;DHT22;41019;48.512;9.036;2023-10-31T06:12:46;10.80;99.90
55121;DHT22;41019;48.512;9.036;2023-10-31T06:15:13;10.80;99.90
55121;DHT22;41019;48.512;9.036;2023-10-31T06:17:58;10.70;99.90
55121;DHT22;41019;48.512;9.036;2023-10-31T06:20:36;10.80;99.90
55121;DHT22;41019;48.512;9.036;2023-10-31T06:23:16;10.70;99.90
55121;DHT22;41019;48.512;9.036;2023-10-31T06:25:45;10.80;99.90
55121;DHT22;41019;48.512;9.036;2023-10-31T06:28:12;10.80;99.90
55121;DHT22;41019;48.512;9.036;2023-10-31T06:30:38;10.80;99.90
55121;DHT22;41019;48.512;9.036;2023-10-31T06:33:03;10.80;99.90
55121;DHT22;41019;48.512;9.036;2023-10-31T06:35:29;10.80;99.90
55121;DHT22;41019;48.512;9.036;2023-10-31T06:37:59;10.80;99.90
55121;DHT22;41019;48.512;9.036;2023-10-31T06:43:16;10.80;99.90
55121;DHT22;41019;48.512;9.036;2023-10-31T06:45:45;10.90;99.90
55121;DHT22;41019;48.512;9.036;2023-10-31T06:48:11;10.90;99.90
55121;DHT22;41019;48.512;9.036;2023-10-31T06:50:37;10.90;99.90
55121;DHT22;41019;48.512;9.036;2023-10-31T06:53:03;10.90;99.90
55121;DHT22;41019;48.512;9.036;2023-10-31T06:55:29;10.90;99.90
55121;DHT22;41019;48.512;9.036;2023-10-31T06:57:57;11.00;99.90
55121;DHT22;41019;48.512;9.036;2023-10-31T07:00:23;10.90;99.90
55121;DHT22;41019;48.512;9.036;2023-10-31T07:02:49;11.00;99.90
55121;DHT22;41019;48.512;9.036;2023-10-31T07:05:15;11.00;99.90
55121;DHT22;41019;48.512;9.036;2023-10-31T07:07:43;11.00;99.90
55121;DHT22;41019;48.512;9.036;2023-10-31T07:10:10;11.10;99.90
55121;DHT22;41019;48.512;9.036;2023-10-31T07:12:39;11.10;99.70
55121;DHT22;41019;48.512;9.036;2023-10-31T07:15:06;11.20;99.50
55121;DHT22;41019;48.512;9.036;2023-10-31T07:17:32;11.20;99.40
55121;DHT22;41019;48.512;9.036;2023-10-31T07:19:59;11.20;99.20
55121;DHT22;41019;48.512;9.036;2023-10-31T07:22:26;11.20;99.60
55121;DHT22;41019;48.512;9.036;2023-10-31T07:24:52;11.20;99.60
55121;DHT22;41019;48.512;9.036;2023-10-31T07:27:18;11.20;99.30
55121;DHT22;41019;48.512;9.036;2023-10-31T07:29:47;11.20;99.50
55121;DHT22;41019;48.512;9.036;2023-10-31T07:32:19;11.20;99.20
55121;DHT22;41019;48.512;9.036;2023-10-31T07:34:45;11.30;99.40
55121;DHT22;41019;48.512;9.036;2023-10-31T07:37:11;11.30;99.60
55121;DHT22;41019;48.512;9.036;2023-10-31T07:39:37;11.30;99.30
55121;DHT22;41019;48.512;9.036;2023-10-31T07:42:03;11.30;99.40
55121;DHT22;41019;48.512;9.036;2023-10-31T07:44:30;11.30;99.40
55121;DHT22;41019;48.512;9.036;2023-10-31T07:46:56;11.40;99.40
55121;DHT22;41019;48.512;9.036;2023-10-31T07:49:22;11.40;99.70
55121;DHT22;41019;48.512;9.036;2023-10-31T07:51:53;11.50;99.90
55121;DHT22;41019;48.512;9.036;2023-10-31T07:54:21;11.50;99.80
55121;DHT22;41019;48.512;9.036;2023-10-31T07:56:47;11.60;99.70
55121;DHT22;41019;48.512;9.036;2023-10-31T07:59:13;11.60;99.80
55121;DHT22;41019;48.512;9.036;2023-10-31T08:01:39;11.70;99.50
55121;DHT22;41019;48.512;9.036;2023-10-31T08:04:05;11.70;99.40
55121;DHT22;41019;48.512;9.036;2023-10-31T08:06:31;11.80;99.20
55121;DHT22;41019;48.512;9.036;2023-10-31T08:08:59;11.90;99.30
55121;DHT22;41019;48.512;9.036;2023-10-31T08:11:25;12.00;99.30
55121;DHT22;41019;48.512;9.036;2023-10-31T08:13:53;12.00;99.40
55121;DHT22;41019;48.512;9.036;2023-10-31T08:16:20;12.10;98.60
55121;DHT22;41019;48.512;9.036;2023-10-31T08:18:47;12.20;98.30
55121;DHT22;41019;48.512;9.036;2023-10-31T08:21:13;12.30;98.20
55121;DHT22;41019;48.512;9.036;2023-10-31T08:23:39;12.30;98.30
55121;DHT22;41019;48.512;9.036;2023-10-31T08:26:05;12.40;98.20
55121;DHT22;41019;48.512;9.036;2023-10-31T08:28:31;12.40;97.90
55121;DHT22;41019;48.512;9.036;2023-10-31T08:30:58;12.50;97.80
55121;DHT22;41019;48.512;9.036;2023-10-31T08:33:25;12.50;97.50
55121;DHT22;41019;48.512;9.036;2023-10-31T08:35:51;12.60;97.10
55121;DHT22;41019;48.512;9.036;2023-10-31T08:38:17;12.60;97.00
55121;DHT22;41019;48.512;9.036;2023-10-31T08:40:43;12.70;97.10
55121;DHT22;41019;48.512;9.036;2023-10-31T08:43:10;12.70;96.90
55121;DHT22;41019;48.512;9.036;2023-10-31T08:45:39;12.70;96.80
55121;DHT22;41019;48.512;9.036;2023-10-31T08:48:07;12.80;96.50
55121;DHT22;41019;48.512;9.036;2023-10-31T08:50:36;12.80;96.80
55121;DHT22;41019;48.512;9.036;2023-10-31T08:53:04;12.80;96.40
55121;DHT22;41019;48.512;9.036;2023-10-31T08:55:30;12.90;96.70
55121;DHT22;41019;48.512;9.036;2023-10-31T08:57:56;13.00;96.70
55121;DHT22;41019;48.512;9.036;2023-10-31T09:00:24;13.10;96.30
55121;DHT22;41019;48.512;9.036;2023-10-31T09:02:50;13.20;96.20
55121;DHT22;41019;48.512;9.036;2023-10-31T09:05:17;13.30;95.90
55121;DHT22;41019;48.512;9.036;2023-10-31T09:07:43;13.40;95.10
55121;DHT22;41019;48.512;9.036;2023-10-31T09:10:09;13.50;95.10
55121;DHT22;41019;48.512;9.036;2023-10-31T09:12:35;13.50;95.60
55121;DHT22;41019;48.512;9.036;2023-10-31T09:15:01;13.70;94.60
55121;DHT22;41019;48.512;9.036;2023-10-31T09:17:27;13.80;94.50
55121;DHT22;41019;48.512;9.036;2023-10-31T09:19:53;13.80;94.40
55121;DHT22;41019;48.512;9.036;2023-10-31T09:22:27;13.90;94.40
55121;DHT22;41019;48.512;9.036;2023-10-31T09:24:56;13.90;93.70
55121;DHT22;41019;48.512;9.036;2023-10-31T09:27:23;13.80;93.60
55121;DHT22;41019;48.512;9.036;2023-10-31T09:29:49;13.90;94.30
55121;DHT22;41019;48.512;9.036;2023-10-31T09:32:18;14.00;93.40
55121;DHT22;41019;48.512;9.036;2023-10-31T09:34:44;14.00;93.40
55121;DHT22;41019;48.512;9.036;2023-10-31T09:37:10;13.90;92.80
55121;DHT22;41019;48.512;9.036;2023-10-31T09:39:36;13.90;92.90
55121;DHT22;41019;48.512;9.036;2023-10-31T09:42:02;13.80;93.10
55121;DHT22;41019;48.512;9.036;2023-10-31T09:44:28;13.80;93.00
55121;DHT22;41019;48.512;9.036;2023-10-31T09:46:55;13.80;93.00
55121;DHT22;41019;48.512;9.036;2023-10-31T09:49:26;13.70;93.70
55121;DHT22;41019;48.512;9.036;2023-10-31T09:51:52;13.70;93.40
55121;DHT22;41019;48.512;9.036;2023-10-31T09:54:20;13.90;92.80
55121;DHT22;41019;48.512;9.036;2023-10-31T09:56:46;14.00;93.20
55121;DHT22;41019;48.512;9.036;2023-10-31T09:59:14;14.20;92.60
55121;DHT22;41019;48.512;9.036;2023-10-31T10:01:41;14.40;93.10
55121;DHT22;41019;48.512;9.036;2023-10-31T10:04:08;14.50;92.80
55121;DHT22;41019;48.512;9.036;2023-10-31T10:06:34;14.60;92.20
55121;DHT22;41019;48.512;9.036;2023-10-31T10:09:00;14.60;92.00
55121;DHT22;41019;48.512;9.036;2023-10-31T10:11:32;14.60;91.80
55121;DHT22;41019;48.512;9.036;2023-10-31T10:13:59;14.60;92.00
55121;DHT22;41019;48.512;9.036;2023-10-31T10:16:30;14.50;92.20
55121;DHT22;41019;48.512;9.036;2023-10-31T10:18:56;14.50;92.30
55121;DHT22;41019;48.512;9.036;2023-10-31T10:21:25;14.50;92.00
55121;DHT22;41019;48.512;9.036;2023-10-31T10:23:52;14.50;92.30
55121;DHT22;41019;48.512;9.036;2023-10-31T10:26:18;14.50;92.60
55121;DHT22;41019;48.512;9.036;2023-10-31T10:28:49;14.50;92.30
55121;DHT22;41019;48.512;9.036;2023-10-31T10:31:14;14.60;92.80
55121;DHT22;41019;48.512;9.036;2023-10-31T10:33:41;14.60;92.50
55121;DHT22;41019;48.512;9.036;2023-10-31T10:36:10;14.70;92.20
55121;DHT22;41019;48.512;9.036;2023-10-31T10:38:37;14.90;92.50
55121;DHT22;41019;48.512;9.036;2023-10-31T10:41:06;14.90;92.20
55121;DHT22;41019;48.512;9.036;2023-10-31T10:43:38;15.00;91.80
55121;DHT22;41019;48.512;9.036;2023-10-31T10:46:07;15.00;91.70
55121;DHT22;41019;48.512;9.036;2023-10-31T10:48:39;15.10;91.60
55121;DHT22;41019;48.512;9.036;2023-10-31T10:51:23;15.10;91.90
55121;DHT22;41019;48.512;9.036;2023-10-31T10:54:07;15.30;91.70
55121;DHT22;41019;48.512;9.036;2023-10-31T10:56:41;15.40;91.60
55121;DHT22;41019;48.512;9.036;2023-10-31T10:59:15;15.40;91.00
55121;DHT22;41019;48.512;9.036;2023-10-31T11:01:49;15.40;91.20
55121;DHT22;41019;48.512;9.036;2023-10-31T11:04:16;15.40;91.50
55121;DHT22;41019;48.512;9.036;2023-10-31T11:06:44;15.40;90.90
55121;DHT22;41019;48.512;9.036;2023-10-31T11:09:13;15.50;90.70
55121;DHT22;41019;48.512;9.036;2023-10-31T11:11:41;15.50;91.10
55121;DHT22;41019;48.512;9.036;2023-10-31T11:14:16;15.60;90.80
55121;DHT22;41019;48.512;9.036;2023-10-31T11:16:52;15.80;90.20
55121;DHT22;41019;48.512;9.036;2023-10-31T11:19:20;15.90;89.60
55121;DHT22;41019;48.512;9.036;2023-10-31T11:22:01;15.90;90.50
55121;DHT22;41019;48.512;9.036;2023-10-31T11:24:30;16.00;89.60
55121;DHT22;41019;48.512;9.036;2023-10-31T11:27:02;16.00;89.30
55121;DHT22;41019;48.512;9.036;2023-10-31T11:29:31;15.90;89.20
55121;DHT22;41019;48.512;9.036;2023-10-31T11:31:59;15.90;89.60
55121;DHT22;41019;48.512;9.036;2023-10-31T11:34:30;15.80;88.50
55121;DHT22;41019;48.512;9.036;2023-10-31T11:37:19;15.70;88.50
55121;DHT22;41019;48.512;9.036;2023-10-31T11:42:41;15.60;89.10
55121;DHT22;41019;48.512;9.036;2023-10-31T11:45:09;15.50;88.50
55121;DHT22;41019;48.512;9.036;2023-10-31T11:47:48;15.40;89.00
55121;DHT22;41019;48.512;9.036;2023-10-31T11:50:15;15.40;89.20
55121;DHT22;41019;48.512;9.036;2023-10-31T11:52:57;15.30;89.90
55121;DHT22;41019;48.512;9.036;2023-10-31T11:55:25;15.40;90.00
55121;DHT22;41019;48.512;9.036;2023-10-31T11:57:51;15.50;89.80
55121;DHT22;41019;48.512;9.036;2023-10-31T12:00:24;15.60;90.00
55121;DHT22;41019;48.512;9.036;2023-10-31T12:03:02;15.80;89.90
55121;DHT22;41019;48.512;9.036;2023-10-31T12:05:29;16.00;89.40
55121;DHT22;41019;48.512;9.036;2023-10-31T12:07:55;16.00;88.70
55121;DHT22;41019;48.512;9.036;2023-10-31T12:10:41;16.20;87.40
55121;DHT22;41019;48.512;9.036;2023-10-31T12:13:13;16.20;87.20
55121;DHT22;41019;48.512;9.036;2023-10-31T12:15:52;16.20;87.60
55121;DHT22;41019;48.512;9.036;2023-10-31T12:19:03;16.20;86.70
55121;DHT22;41019;48.512;9.036;2023-10-31T12:21:43;16.20;87.40
55121;DHT22;41019;48.512;9.036;2023-10-31T12:24:12;16.10;86.60
55121;DHT22;41019;48.512;9.036;2023-10-31T12:26:39;16.10;85.30
55121;DHT22;41019;48.512;9.036;2023-10-31T12:29:14;16.00;85.90
55121;DHT22;41019;48.512;9.036;2023-10-31T12:31:44;16.00;85.60
55121;DHT22;41019;48.512;9.036;2023-10-31T12:34:11;15.90;85.30
55121;DHT22;41019;48.512;9.036;2023-10-31T12:36:38;15.80;85.40
55121;DHT22;41019;48.512;9.036;2023-10-31T12:39:08;15.80;86.60
55121;DHT22;41019;48.512;9.036;2023-10-31T12:41:36;15.80;86.00
55121;DHT22;41019;48.512;9.036;2023-10-31T12:44:03;15.90;85.70
55121;DHT22;41019;48.512;9.036;2023-10-31T12:46:31;15.80;85.50
55121;DHT22;41019;48.512;9.036;2023-10-31T12:48:58;15.80;85.30
55121;DHT22;41019;48.512;9.036;2023-10-31T12:51:25;15.80;84.60
55121;DHT22;41019;48.512;9.036;2023-10-31T12:53:52;15.70;85.30
55121;DHT22;41019;48.512;9.036;2023-10-31T12:56:41;15.80;85.50
55121;DHT22;41019;48.512;9.036;2023-10-31T12:59:10;15.80;84.70
55121;DHT22;41019;48.512;9.036;2023-10-31T13:01:46;15.80;85.60
55121;DHT22;41019;48.512;9.036;2023-10-31T13:04:12;15.80;85.20
55121;DHT22;41019;48.512;9.036;2023-10-31T13:06:38;15.80;85.50
55121;DHT22;41019;48.512;9.036;2023-10-31T13:09:04;15.80;85.80
55121;DHT22;41019;48.512;9.036;2023-10-31T13:11:39;15.90;85.30
55121;DHT22;41019;48.512;9.036;2023-10-31T13:14:05;16.00;85.80
55121;DHT22;41019;48.512;9.036;2023-10-31T13:16:35;16.10;86.00
55121;DHT22;41019;48.512;9.036;2023-10-31T13:19:02;16.10;85.00
55121;DHT22;41019;48.512;9.036;2023-10-31T13:21:28;16.20;85.10
55121;DHT22;41019;48.512;9.036;2023-10-31T13:23:55;16.20;84.70
55121;DHT22;41019;48.512;9.036;2023-10-31T13:26:22;16.30;85.00
55121;DHT22;41019;48.512;9.036;2023-10-31T13:28:48;16.30;85.00
55121;DHT22;41019;48.512;9.036;2023-10-31T13:31:16;16.20;83.00
55121;DHT22;41019;48.512;9.036;2023-10-31T13:33:44;16.20;83.00
55121;DHT22;41019;48.512;9.036;2023-10-31T13:36:11;16.10;82.70
55121;DHT22;41019;48.512;9.036;2023-10-31T13:38:37;16.00;83.80
55121;DHT22;41019;48.512;9.036;2023-10-31T13:41:04;16.00;84.40
55121;DHT22;41019;48.512;9.036;2023-10-31T13:43:34;15.90;83.70
55121;DHT22;41019;48.512;9.036;2023-10-31T13:46:03;15.80;84.90
55121;DHT22;41019;48.512;9.036;2023-10-31T13:48:32;15.80;85.10
55121;DHT22;41019;48.512;9.036;2023-10-31T13:50:58;15.80;85.80
55121;DHT22;41019;48.512;9.036;2023-10-31T13:53:32;15.80;85.60
55121;DHT22;41019;48.512;9.036;2023-10-31T13:56:00;15.70;85.00
55121;DHT22;41019;48.512;9.036;2023-10-31T13:58:32;15.80;86.20
55121;DHT22;41019;48.512;9.036;2023-10-31T14:00:58;15.80;86.10
55121;DHT22;41019;48.512;9.036;2023-10-31T14:03:26;15.80;85.10
55121;DHT22;41019;48.512;9.036;2023-10-31T14:05:52;15.80;85.40
55121;DHT22;41019;48.512;9.036;2023-10-31T14:08:22;15.70;84.50
55121;DHT22;41019;48.512;9.036;2023-10-31T14:10:50;15.70;84.80
55121;DHT22;41019;48.512;9.036;2023-10-31T14:13:18;15.60;85.60
55121;DHT22;41019;48.512;9.036;2023-10-31T14:15:46;15.50;86.20
55121;DHT22;41019;48.512;9.036;2023-10-31T14:18:12;15.40;85.90
55121;DHT22;41019;48.512;9.036;2023-10-31T14:20:39;15.30;86.10
55121;DHT22;41019;48.512;9.036;2023-10-31T14:23:06;15.20;86.90
55121;DHT22;41019;48.512;9.036;2023-10-31T14:25:32;15.20;87.20
55121;DHT22;41019;48.512;9.036;2023-10-31T14:27:59;15.10;87.40
55121;DHT22;41019;48.512;9.036;2023-10-31T14:30:25;15.00;87.70
55121;DHT22;41019;48.512;9.036;2023-10-31T14:32:52;15.00;87.30
55121;DHT22;41019;48.512;9.036;2023-10-31T14:35:18;14.90;88.10
55121;DHT22;41019;48.512;9.036;2023-10-31T14:37:44;14.90;88.10
55121;DHT22;41019;48.512;9.036;2023-10-31T14:40:10;14.80;88.90
55121;DHT22;41019;48.512;9.036;2023-10-31T14:42:36;14.80;88.70
55121;DHT22;41019;48.512;9.036;2023-10-31T14:45:02;14.70;89.60
55121;DHT22;41019;48.512;9.036;2023-10-31T14:47:31;14.70;90.10
55121;DHT22;41019;48.512;9.036;2023-10-31T14:49:56;14.60;89.70
55121;DHT22;41019;48.512;9.036;2023-10-31T14:52:22;14.60;90.20
55121;DHT22;41019;48.512;9.036;2023-10-31T14:54:48;14.60;90.40
55121;DHT22;41019;48.512;9.036;2023-10-31T14:57:15;14.50;90.50
55121;DHT22;41019;48.512;9.036;2023-10-31T14:59:41;14.50;90.70
55121;DHT22;41019;48.512;9.036;2023-10-31T15:02:07;14.50;90.60
55121;DHT22;41019;48.512;9.036;2023-10-31T15:04:33;14.40;90.90
55121;DHT22;41019;48.512;9.036;2023-10-31T15:07:01;14.30;91.70
55121;DHT22;41019;48.512;9.036;2023-10-31T15:09:27;14.30;91.80
55121;DHT22;41019;48.512;9.036;2023-10-31T15:11:53;14.30;92.20
55121;DHT22;41019;48.512;9.036;2023-10-31T15:14:23;14.20;92.20
55121;DHT22;41019;48.512;9.036;2023-10-31T15:16:49;14.10;92.60
55121;DHT22;41019;48.512;9.036;2023-10-31T15:19:19;14.10;93.20
55121;DHT22;41019;48.512;9.036;2023-10-31T15:21:45;14.00;93.10
55121;DHT22;41019;48.512;9.036;2023-10-31T15:24:12;14.00;93.50
55121;DHT22;41019;48.512;9.036;2023-10-31T15:29:33;13.80;94.80
55121;DHT22;41019;48.512;9.036;2023-10-31T15:32:22;13.70;95.50
55121;DHT22;41019;48.512;9.036;2023-10-31T15:34:57;13.60;95.80
55121;DHT22;41019;48.512;9.036;2023-10-31T15:37:25;13.50;96.10
55121;DHT22;41019;48.512;9.036;2023-10-31T15:40:03;13.40;96.10
55121;DHT22;41019;48.512;9.036;2023-10-31T15:42:56;13.40;96.20
55121;DHT22;41019;48.512;9.036;2023-10-31T15:45:35;13.30;96.90
55121;DHT22;41019;48.512;9.036;2023-10-31T15:48:09;13.20;97.10
55121;DHT22;41019;48.512;9.036;2023-10-31T15:50:42;13.20;97.40